KDTW/DTW METAR and TAF weather

Enter ICAO airport designator
Station Type Date Time Source
KDTW METAR 2021/08/04 19:53 UTC NOAA

KDTW 041953Z 9SM BKN070 27/14 A3011 RMK AO2 SLP192 T02720139


Station Type Date Time Source
KDTW Decoded METAR 2021/08/04 19:53 UTC NOAA

DETROIT METROPOLITAN, MI, United States (KDTW) 42-14N 83-20W 195M
Aug 04, 2021 - 03:53 PM EDT / 2021.08.04 1953 UTC
Visibility: 9 mile(s):0
Sky conditions: mostly cloudy
Temperature: 81.0 F (27.2 C)
Dew Point: 57.0 F (13.9 C)
Relative Humidity: 44%
Pressure (altimeter): 30.11 in. Hg (1019 hPa)
ob: KDTW 041953Z 9SM BKN070 27/14 A3011 RMK AO2 SLP192 T02720139
cycle: 20

Station Type Date Time Source
KDTW TAF 2021/08/04 18:28 UTC NOAA

TAF KDTW 041726Z 0418/0524 14005KT P6SM BKN060
TEMPO 0420/0423 SHRA BKN040
FM050200 VRB03KT P6SM SCT070
FM050900 25006KT 6SM HZ FEW060
FM051300 19005KT P6SM SCT060

Example: see airport list